createdAt,value
2023-05-10T00:00:37.401Z,93.73
2023-05-10T00:01:37.520Z,93.42
2023-05-10T00:02:37.754Z,92.19
2023-05-10T00:03:37.746Z,92.29
2023-05-10T00:04:37.709Z,92.60
2023-05-10T00:05:37.800Z,91.79
2023-05-10T00:06:37.905Z,92.80
2023-05-10T00:07:37.971Z,93.11
2023-05-10T00:08:38.081Z,93.21
2023-05-10T00:09:38.122Z,94.89
2023-05-10T00:10:38.228Z,94.78
2023-05-10T00:11:38.320Z,94.80
2023-05-10T00:12:38.429Z,94.54
2023-05-10T00:13:38.494Z,94.27
2023-05-10T00:14:38.689Z,95.07
2023-05-10T00:15:38.696Z,94.91
2023-05-10T00:16:38.783Z,94.27
2023-05-10T00:17:38.826Z,94.43
2023-05-10T00:18:38.889Z,94.33
2023-05-10T00:19:38.999Z,95.10
2023-05-10T00:20:39.044Z,94.59
2023-05-10T00:21:39.133Z,95.07
2023-05-10T00:22:39.217Z,95.61
2023-05-10T00:23:39.266Z,96.48
2023-05-10T00:24:39.358Z,97.04
2023-05-10T00:25:39.449Z,96.59
2023-05-10T00:26:39.521Z,96.26
2023-05-10T00:27:39.630Z,97.43
2023-05-10T00:28:39.685Z,97.88
2023-05-10T00:29:39.787Z,97.88
2023-05-10T00:30:39.834Z,96.87
2023-05-10T00:31:39.929Z,97.21
2023-05-10T00:32:40.037Z,96.04
2023-05-10T00:33:40.072Z,95.66
2023-05-10T00:34:40.170Z,95.72
2023-05-10T00:35:40.263Z,95.45
2023-05-10T00:36:40.318Z,94.64
2023-05-10T00:37:40.402Z,96.15
2023-05-10T00:38:40.491Z,97.77
2023-05-10T00:39:40.575Z,97.26
2023-05-10T00:40:40.660Z,96.10
2023-05-10T00:41:40.740Z,94.86
2023-05-10T00:42:40.824Z,95.18
2023-05-10T00:43:40.892Z,96.26
2023-05-10T00:44:40.972Z,96.26
2023-05-10T00:45:41.083Z,97.32
2023-05-10T00:46:41.159Z,97.43
2023-05-10T00:47:41.240Z,97.32
2023-05-10T00:48:41.300Z,96.32
2023-05-10T00:49:41.393Z,96.21
2023-05-10T00:50:41.489Z,96.93
2023-05-10T00:51:41.546Z,96.48
2023-05-10T00:52:41.625Z,93.59
2023-05-10T00:53:41.699Z,96.87
2023-05-10T00:54:41.792Z,94.48
2023-05-10T00:55:41.892Z,95.39
2023-05-10T00:56:41.940Z,94.27
2023-05-10T00:57:42.004Z,95.12
2023-05-10T00:58:42.114Z,96.43
2023-05-10T00:59:42.188Z,96.32
2023-05-10T01:00:42.290Z,96.87
2023-05-10T01:01:42.378Z,97.71
2023-05-10T01:02:42.506Z,96.04
2023-05-10T01:03:42.551Z,94.36
2023-05-10T01:04:42.638Z,92.50
2023-05-10T01:05:42.662Z,92.19
2023-05-10T01:06:42.776Z,92.70
2023-05-10T01:07:42.845Z,92.80
2023-05-10T01:08:42.912Z,93.21
2023-05-10T01:09:42.998Z,94.04
2023-05-10T01:10:43.087Z,93.00
2023-05-10T01:11:43.174Z,92.50
2023-05-10T01:12:43.395Z,90.32
2023-05-10T01:13:43.327Z,91.10
2023-05-10T01:14:43.412Z,90.51
2023-05-10T01:15:43.502Z,90.51
2023-05-10T01:16:43.577Z,89.55
2023-05-10T01:17:43.728Z,90.51
2023-05-10T01:18:43.738Z,93.21
2023-05-10T01:19:43.813Z,93.94
2023-05-10T01:20:43.902Z,95.21
2023-05-10T01:21:50.385Z,95.32
2023-05-10T01:22:46.649Z,93.21
2023-05-10T01:23:44.143Z,93.11
2023-05-10T01:24:44.219Z,94.68
2023-05-10T01:25:44.304Z,94.36
2023-05-10T01:26:44.404Z,93.52
2023-05-10T01:27:44.481Z,94.36
2023-05-10T01:28:44.562Z,93.73
2023-05-10T01:29:44.675Z,94.17
2023-05-10T01:30:44.765Z,94.68
2023-05-10T01:31:44.903Z,93.94
2023-05-10T01:32:44.973Z,91.99
2023-05-10T01:33:45.003Z,93.31
2023-05-10T01:34:45.080Z,94.89
2023-05-10T01:35:45.166Z,93.83
2023-05-10T01:36:45.218Z,93.11
2023-05-10T01:37:45.301Z,93.54
2023-05-10T01:38:45.371Z,94.68
2023-05-10T01:39:45.446Z,94.36
2023-05-10T01:40:45.604Z,94.89
2023-05-10T01:41:45.616Z,95.07
2023-05-10T01:42:45.681Z,95.55
2023-05-10T01:43:45.763Z,94.78
2023-05-10T01:44:45.856Z,94.68
2023-05-10T01:45:45.944Z,92.39
2023-05-10T01:46:46.045Z,94.57
2023-05-10T01:47:46.128Z,93.52
2023-05-10T01:48:46.172Z,93.31
2023-05-10T01:49:46.254Z,93.31
2023-05-10T01:50:46.358Z,92.80
2023-05-10T01:51:46.407Z,93.52
2023-05-10T01:52:46.499Z,94.68
2023-05-10T01:53:46.589Z,93.52
2023-05-10T01:54:46.667Z,95.00
2023-05-10T01:55:46.719Z,95.00
2023-05-10T01:56:46.800Z,92.09
2023-05-10T01:57:46.887Z,94.89
2023-05-10T01:58:46.986Z,94.25
2023-05-10T01:59:47.083Z,93.31
2023-05-10T02:00:47.204Z,92.90
2023-05-10T02:01:47.235Z,93.83
2023-05-10T02:02:47.407Z,90.90
2023-05-10T02:03:47.434Z,90.71
2023-05-10T02:04:47.461Z,91.10
2023-05-10T02:05:47.554Z,91.79
2023-05-10T02:06:47.625Z,93.21
2023-05-10T02:07:47.723Z,94.36
2023-05-10T02:08:47.825Z,91.49
2023-05-10T02:09:47.887Z,92.19
2023-05-10T02:10:47.989Z,93.42
2023-05-10T02:11:48.058Z,92.50
2023-05-10T02:12:48.163Z,92.29
2023-05-10T02:13:48.269Z,93.21
2023-05-10T02:14:48.329Z,90.51
2023-05-10T02:15:48.367Z,90.71
2023-05-10T02:16:48.475Z,91.79
2023-05-10T02:17:48.569Z,91.69
2023-05-10T02:18:48.628Z,91.69
2023-05-10T02:19:48.715Z,91.79
2023-05-10T02:20:48.819Z,90.12
2023-05-10T02:21:48.902Z,90.32
2023-05-10T02:22:48.975Z,89.27
2023-05-10T02:23:49.054Z,89.65
2023-05-10T02:24:49.152Z,88.80
2023-05-10T02:25:49.214Z,88.61
2023-05-10T02:26:49.305Z,88.52
2023-05-10T02:27:49.391Z,90.22
2023-05-10T02:28:49.488Z,88.98
2023-05-10T02:29:49.582Z,88.89
2023-05-10T02:30:49.687Z,86.88
2023-05-10T02:31:49.835Z,86.08
2023-05-10T02:32:49.868Z,86.61
2023-05-10T02:33:49.909Z,85.30
2023-05-10T02:34:50.035Z,84.87
2023-05-10T02:35:50.077Z,85.82
2023-05-10T02:36:50.172Z,86.08
2023-05-10T02:37:50.258Z,87.33
2023-05-10T02:38:50.340Z,85.47
2023-05-10T02:39:50.432Z,85.21
2023-05-10T02:40:50.532Z,84.95
2023-05-10T02:41:50.589Z,84.53
2023-05-10T02:42:50.665Z,83.69
2023-05-10T02:43:50.756Z,83.86
2023-05-10T02:44:50.814Z,82.54
2023-05-10T02:45:50.988Z,83.03
2023-05-10T02:46:50.996Z,83.36
2023-05-10T02:47:51.078Z,82.22
2023-05-10T02:48:51.146Z,83.44
2023-05-10T02:49:51.247Z,83.28
2023-05-10T02:50:51.292Z,83.44
2023-05-10T02:51:51.372Z,83.36
2023-05-10T02:52:51.479Z,83.44
2023-05-10T02:53:51.516Z,83.94
2023-05-10T02:54:51.610Z,83.36
2023-05-10T02:55:51.725Z,83.61
2023-05-10T02:56:51.770Z,83.52
2023-05-10T02:57:51.875Z,83.61
2023-05-10T02:58:51.948Z,82.79
2023-05-10T02:59:52.028Z,83.11
2023-05-10T03:00:52.214Z,82.62
2023-05-10T03:01:52.284Z,82.22
2023-05-10T03:02:52.338Z,82.06
2023-05-10T03:03:52.322Z,81.98
2023-05-10T03:04:52.474Z,80.88
2023-05-10T03:05:52.479Z,82.38
2023-05-10T03:06:52.758Z,82.22
2023-05-10T03:07:52.712Z,81.27
2023-05-10T03:08:52.706Z,81.04
2023-05-10T03:09:52.789Z,80.80
2023-05-10T03:10:52.878Z,80.65
2023-05-10T03:11:52.968Z,80.57
2023-05-10T03:12:53.079Z,81.11
2023-05-10T03:13:53.157Z,80.80
2023-05-10T03:14:53.209Z,80.65
2023-05-10T03:15:53.317Z,80.26
2023-05-10T03:16:53.422Z,80.04
2023-05-10T03:17:53.525Z,78.99
2023-05-10T03:18:53.549Z,79.51
2023-05-10T03:19:53.667Z,78.55
2023-05-10T03:20:53.734Z,78.40
2023-05-10T03:21:53.842Z,79.36
2023-05-10T03:22:53.898Z,78.55
2023-05-10T03:23:53.941Z,79.28
2023-05-10T03:24:54.023Z,78.91
2023-05-10T03:25:54.112Z,78.69
2023-05-10T03:26:54.211Z,78.25
2023-05-10T03:27:54.269Z,77.97
2023-05-10T03:28:54.360Z,77.04
2023-05-10T03:29:54.423Z,77.46
2023-05-10T03:30:54.509Z,76.27
2023-05-10T03:31:54.668Z,75.52
2023-05-10T03:32:54.723Z,76.27
2023-05-10T03:33:54.788Z,75.52
2023-05-10T03:34:54.867Z,74.33
2023-05-10T03:35:54.965Z,73.17
2023-05-10T03:36:55.038Z,73.23
2023-05-10T03:37:55.085Z,73.17
2023-05-10T03:38:55.177Z,72.41
2023-05-10T03:39:55.262Z,71.43
2023-05-10T03:40:55.351Z,70.24
2023-05-10T03:41:55.432Z,69.78
2023-05-10T03:42:55.516Z,70.42
2023-05-10T03:43:55.600Z,71.67
2023-05-10T03:44:55.701Z,72.10
2023-05-10T03:45:55.769Z,72.04
2023-05-10T03:46:55.883Z,72.35
2023-05-10T03:47:55.973Z,72.79
2023-05-10T03:48:56.032Z,72.85
2023-05-10T03:49:56.116Z,73.74
2023-05-10T03:50:56.199Z,75.86
2023-05-10T03:51:56.281Z,76.55
2023-05-10T03:52:56.399Z,77.11
2023-05-10T03:53:56.490Z,77.46
2023-05-10T03:54:56.584Z,78.33
2023-05-10T03:55:56.650Z,78.77
2023-05-10T03:56:56.771Z,80.34
2023-05-10T03:57:56.846Z,79.51
2023-05-10T03:58:56.929Z,82.22
2023-05-10T03:59:56.979Z,82.70
2023-05-10T04:00:57.062Z,83.77
2023-05-10T04:01:57.222Z,85.30
2023-05-10T04:02:57.341Z,85.21
2023-05-10T04:03:57.418Z,87.06
2023-05-10T04:04:57.384Z,86.34
2023-05-10T04:05:57.510Z,87.51
2023-05-10T04:06:57.568Z,87.24
2023-05-10T04:07:57.645Z,89.08
2023-05-10T04:08:57.735Z,91.89
2023-05-10T04:09:57.822Z,93.94
2023-05-10T04:10:57.892Z,93.00
2023-05-10T04:11:57.974Z,93.52
2023-05-10T04:12:58.105Z,93.94
2023-05-10T04:13:58.135Z,94.04
2023-05-10T04:14:58.234Z,94.89
2023-05-10T04:15:58.305Z,95.77
2023-05-10T04:16:58.402Z,95.55
2023-05-10T04:17:58.543Z,96.10
2023-05-10T04:18:58.531Z,97.32
2023-05-10T04:19:58.622Z,97.83
2023-05-10T04:20:58.705Z,98.28
2023-05-10T04:21:58.778Z,97.83
2023-05-10T04:22:58.869Z,97.54
2023-05-10T04:23:58.953Z,98.28
2023-05-10T04:24:59.056Z,98.45
2023-05-10T04:25:59.135Z,99.09
2023-05-10T04:26:59.236Z,101.66
2023-05-10T04:27:59.290Z,102.71
2023-05-10T04:28:59.374Z,102.46
2023-05-10T04:29:59.466Z,104.75
2023-05-10T04:30:59.580Z,105.93
2023-05-10T04:31:59.637Z,106.80
2023-05-10T04:34:15.065Z,64.94
2023-05-10T04:35:16.169Z,85.82
2023-05-10T04:36:16.250Z,95.39
2023-05-10T04:37:16.355Z,100.87
2023-05-10T04:38:16.428Z,104.23
2023-05-10T04:39:16.519Z,104.68
2023-05-10T04:40:16.859Z,105.53
2023-05-10T04:41:16.646Z,106.87
2023-05-10T04:42:16.736Z,108.17
2023-05-10T04:43:16.825Z,109.43
2023-05-10T04:44:16.851Z,110.15
2023-05-10T04:45:16.938Z,109.79
2023-05-10T04:46:17.073Z,109.86
2023-05-10T04:47:17.082Z,111.24
2023-05-10T04:49:37.897Z,65.60
2023-05-10T04:50:38.955Z,88.61
2023-05-10T04:51:39.026Z,99.91
2023-05-10T04:52:39.096Z,108.52
2023-05-10T04:53:39.190Z,111.31
2023-05-10T04:54:39.255Z,112.43
2023-05-10T04:55:39.345Z,114.25
2023-05-10T04:56:39.416Z,115.11
2023-05-10T04:57:39.524Z,118.84
2023-05-10T04:58:39.590Z,117.11
2023-05-10T04:59:39.689Z,118.01
2023-05-10T05:00:39.762Z,118.34
2023-05-10T05:01:39.877Z,117.60
2023-05-10T05:02:39.993Z,113.03
2023-05-10T05:03:40.073Z,111.09
2023-05-10T05:04:40.066Z,111.02
2023-05-10T05:05:40.152Z,108.94
2023-05-10T05:06:40.250Z,107.01
2023-05-10T05:07:40.297Z,104.55
2023-05-10T05:08:40.413Z,107.07
2023-05-10T05:09:40.462Z,110.87
2023-05-10T05:10:40.523Z,115.74
2023-05-10T05:11:40.610Z,117.19
2023-05-10T05:12:40.685Z,119.17
2023-05-10T05:13:40.783Z,122.73
2023-05-10T05:14:40.871Z,123.99
2023-05-10T05:15:40.973Z,126.97
2023-05-10T05:16:41.054Z,128.91
2023-05-10T05:17:41.169Z,121.67
2023-05-10T05:18:41.226Z,118.75
2023-05-10T05:19:41.348Z,121.49
2023-05-10T05:20:41.394Z,125.28
2023-05-10T05:21:41.481Z,128.52
2023-05-10T05:22:41.570Z,132.77
2023-05-10T05:23:41.687Z,132.77
2023-05-10T05:24:41.745Z,126.12
2023-05-10T05:25:41.804Z,122.28
2023-05-10T05:26:41.899Z,125.84
2023-05-10T05:27:41.982Z,130.41
2023-05-10T05:28:42.068Z,135.22
2023-05-10T05:29:42.142Z,137.20
2023-05-10T05:30:43.085Z,138.66
2023-05-10T05:31:42.281Z,139.23
2023-05-10T05:32:42.393Z,138.89
2023-05-10T05:33:42.422Z,135.98
2023-05-10T05:34:42.475Z,132.56
2023-05-10T05:35:42.562Z,132.56
2023-05-10T05:36:42.647Z,134.46
2023-05-10T05:37:42.744Z,132.77
2023-05-10T05:38:42.835Z,128.62
2023-05-10T05:39:42.932Z,126.88
2023-05-10T05:40:43.034Z,127.36
2023-05-10T05:41:43.127Z,126.88
2023-05-10T05:42:43.184Z,124.91
2023-05-10T05:43:43.281Z,121.49
2023-05-10T05:44:43.378Z,117.11
2023-05-10T05:45:44.458Z,118.59
2023-05-10T05:46:43.544Z,114.41
2023-05-10T05:47:43.616Z,109.86
2023-05-10T05:48:43.690Z,110.15
2023-05-10T05:49:43.790Z,106.26
2023-05-10T05:50:43.889Z,101.41
2023-05-10T05:51:43.958Z,98.92
2023-05-10T05:52:44.042Z,97.09
2023-05-10T05:53:44.145Z,94.01
2023-05-10T05:54:44.256Z,92.90
2023-05-10T05:55:44.325Z,90.51
2023-05-10T05:56:44.430Z,88.70
2023-05-10T05:57:44.495Z,92.70
2023-05-10T05:58:44.565Z,95.83
2023-05-10T05:59:44.662Z,101.29
2023-05-10T06:00:44.788Z,106.47
2023-05-10T06:01:44.859Z,104.55
2023-05-10T06:02:45.255Z,103.53
2023-05-10T06:03:45.058Z,104.49
2023-05-10T06:04:45.094Z,103.65
2023-05-10T06:05:45.184Z,99.44
2023-05-10T06:06:45.271Z,101.90
2023-05-10T06:07:45.360Z,103.02
2023-05-10T06:08:45.467Z,107.01
2023-05-10T06:09:45.543Z,109.43
2023-05-10T06:10:45.578Z,110.65
2023-05-10T06:11:45.676Z,107.90
2023-05-10T06:12:45.757Z,104.36
2023-05-10T06:13:45.840Z,99.85
2023-05-10T06:14:45.903Z,94.64
2023-05-10T06:15:46.001Z,95.93
2023-05-10T06:16:46.145Z,96.10
2023-05-10T06:17:46.195Z,95.50
2023-05-10T06:18:46.233Z,95.21
2023-05-10T06:19:46.316Z,94.33
2023-05-10T06:20:46.382Z,94.80
2023-05-10T06:21:46.452Z,91.20
2023-05-10T06:22:46.502Z,85.04
2023-05-10T06:23:46.561Z,84.27
2023-05-10T06:24:46.658Z,81.58
2023-05-10T06:25:46.721Z,79.06
2023-05-10T06:26:46.811Z,79.36
2023-05-10T06:27:50.972Z,80.19
2023-05-10T06:28:47.003Z,82.54
2023-05-10T06:29:47.079Z,85.73
2023-05-10T06:30:47.193Z,89.08
2023-05-10T06:31:47.378Z,91.99
2023-05-10T06:32:47.400Z,92.50
2023-05-10T06:33:47.404Z,91.39
2023-05-10T06:34:47.497Z,90.12
2023-05-10T06:35:47.592Z,93.42
2023-05-10T06:36:47.674Z,96.59
2023-05-10T06:37:47.753Z,99.62
2023-05-10T06:38:47.871Z,99.56
2023-05-10T06:39:47.919Z,97.60
2023-05-10T06:40:48.022Z,96.04
2023-05-10T06:41:48.112Z,92.39
2023-05-10T06:42:48.174Z,88.89
2023-05-10T06:43:48.227Z,86.17
2023-05-10T06:44:48.330Z,86.17
2023-05-10T06:45:48.395Z,84.78
2023-05-10T06:46:48.577Z,83.28
2023-05-10T06:47:48.537Z,82.06
2023-05-10T06:48:48.605Z,84.02
2023-05-10T06:49:48.694Z,87.69
2023-05-10T06:50:48.792Z,90.61
2023-05-10T06:51:48.852Z,91.99
2023-05-10T06:52:49.534Z,98.28
2023-05-10T06:53:49.032Z,101.96
2023-05-10T06:54:49.127Z,105.60
2023-05-10T06:55:49.182Z,105.86
2023-05-10T06:56:49.297Z,107.96
2023-05-10T06:57:49.365Z,107.96
2023-05-10T06:58:49.484Z,108.03
2023-05-10T06:59:49.503Z,110.15
2023-05-10T07:00:49.575Z,116.30
2023-05-10T07:01:49.707Z,118.75
2023-05-10T07:02:49.876Z,120.36
2023-05-10T07:03:49.824Z,123.00
2023-05-10T07:04:49.974Z,122.11
2023-05-10T07:05:50.031Z,120.54
2023-05-10T07:06:50.080Z,120.19
2023-05-10T07:07:50.156Z,119.94
2023-05-10T07:08:50.289Z,119.34
2023-05-10T07:09:50.310Z,119.34
2023-05-10T07:10:50.397Z,117.19
2023-05-10T07:11:50.536Z,115.66
2023-05-10T07:12:50.646Z,113.25
2023-05-10T07:13:50.638Z,115.27
2023-05-10T07:14:50.722Z,115.03
2023-05-10T07:15:50.817Z,114.10
2023-05-10T07:16:50.868Z,112.80
2023-05-10T07:17:51.060Z,111.02
2023-05-10T07:18:51.029Z,113.18
2023-05-10T07:19:51.129Z,111.02
2023-05-10T07:20:51.252Z,110.22
2023-05-10T07:21:51.312Z,109.01
2023-05-10T07:22:51.357Z,107.01
2023-05-10T07:23:51.472Z,105.21
2023-05-10T07:24:51.531Z,104.81
2023-05-10T07:25:51.606Z,104.17
2023-05-10T07:26:51.704Z,102.52
2023-05-10T07:27:51.765Z,96.21
2023-05-10T07:28:51.877Z,94.78
2023-05-10T07:29:51.968Z,93.94
2023-05-10T07:30:52.141Z,91.10
2023-05-10T07:31:52.203Z,91.99
2023-05-10T07:32:52.238Z,94.46
2023-05-10T07:33:52.320Z,92.80
2023-05-10T07:34:52.381Z,91.69
2023-05-10T07:35:52.535Z,95.10
2023-05-10T07:36:52.529Z,94.64
2023-05-10T07:37:52.607Z,94.48
2023-05-10T07:38:52.680Z,96.54
2023-05-10T07:39:52.739Z,96.70
2023-05-10T07:40:52.858Z,96.59
2023-05-10T07:41:52.942Z,95.45
2023-05-10T07:42:52.983Z,94.17
2023-05-10T07:43:53.072Z,93.75
2023-05-10T07:44:53.217Z,93.73
2023-05-10T07:45:55.992Z,93.62
2023-05-10T07:46:53.301Z,91.89
2023-05-10T07:47:53.464Z,91.69
2023-05-10T07:48:53.459Z,91.20
2023-05-10T07:49:53.528Z,89.36
2023-05-10T07:50:53.615Z,89.08
2023-05-10T07:51:53.672Z,89.55
2023-05-10T07:52:53.763Z,88.52
2023-05-10T07:53:53.821Z,86.97
2023-05-10T07:54:53.906Z,85.56
2023-05-10T07:55:53.967Z,85.56
2023-05-10T07:56:54.621Z,85.21
2023-05-10T07:57:54.106Z,85.47
2023-05-10T07:58:54.218Z,83.86
2023-05-10T07:59:54.287Z,82.79
2023-05-10T08:00:54.654Z,79.96
2023-05-10T08:01:54.460Z,78.84
2023-05-10T08:02:54.615Z,80.04
2023-05-10T08:03:54.747Z,79.36
2023-05-10T08:04:54.707Z,77.46
2023-05-10T08:05:54.796Z,74.65
2023-05-10T08:06:54.880Z,73.55
2023-05-10T08:07:55.010Z,71.01
2023-05-10T08:08:55.021Z,69.83
2023-05-10T08:09:55.115Z,69.26
2023-05-10T08:10:55.190Z,71.19
2023-05-10T08:11:55.240Z,72.16
2023-05-10T08:12:55.350Z,71.19
2023-05-10T08:13:55.403Z,70.71
2023-05-10T08:14:55.492Z,70.07
2023-05-10T08:15:55.596Z,70.30
2023-05-10T08:16:55.641Z,68.14
2023-05-10T08:17:55.722Z,65.60
2023-05-10T08:18:55.827Z,63.67
2023-05-10T08:19:55.862Z,62.12
2023-05-10T08:20:55.944Z,61.13
2023-05-10T08:21:56.033Z,59.66
2023-05-10T08:22:56.100Z,57.90
2023-05-10T08:23:56.180Z,56.73
2023-05-10T08:24:56.287Z,56.39
2023-05-10T08:25:56.345Z,55.32
2023-05-10T08:26:56.399Z,56.58
2023-05-10T08:27:56.461Z,55.28
2023-05-10T08:28:56.519Z,54.78
2023-05-10T08:29:56.603Z,53.03
2023-05-10T08:30:56.761Z,51.95
2023-05-10T08:31:56.777Z,51.22
2023-05-10T08:32:56.878Z,51.63
2023-05-10T08:33:56.904Z,51.47
2023-05-10T08:34:56.978Z,52.40
2023-05-10T08:35:57.034Z,55.28
2023-05-10T08:36:57.136Z,57.86
2023-05-10T08:37:57.241Z,58.34
2023-05-10T08:38:57.310Z,58.54
2023-05-10T08:39:57.396Z,59.66
2023-05-10T08:40:57.657Z,59.16
2023-05-10T08:41:57.541Z,58.58
2023-05-10T08:42:57.598Z,57.51
2023-05-10T08:43:57.717Z,56.73
2023-05-10T08:44:57.752Z,55.76
2023-05-10T08:45:57.821Z,54.01
2023-05-10T08:46:57.936Z,51.44
2023-05-10T08:47:58.013Z,49.95
2023-05-10T08:48:58.061Z,48.79
2023-05-10T08:49:58.116Z,47.80
2023-05-10T08:50:58.182Z,48.07
2023-05-10T08:51:58.287Z,47.69
2023-05-10T08:52:58.344Z,48.77
2023-05-10T08:53:58.444Z,50.40
2023-05-10T08:54:58.514Z,51.85
2023-05-10T08:55:58.580Z,52.21
2023-05-10T08:56:58.674Z,51.10
2023-05-10T08:57:58.724Z,50.82
2023-05-10T08:58:58.829Z,50.07
2023-05-10T08:59:58.887Z,49.54
2023-05-10T09:00:59.015Z,48.82
2023-05-10T09:01:59.055Z,47.88
2023-05-10T09:02:59.197Z,46.92
2023-05-10T09:03:59.312Z,46.46
2023-05-10T09:04:59.413Z,46.35
2023-05-10T09:05:59.413Z,45.51
2023-05-10T09:06:59.447Z,44.59
2023-05-10T09:07:59.552Z,43.53
2023-05-10T09:08:59.607Z,42.57
2023-05-10T09:09:59.709Z,41.12
2023-05-10T09:10:59.784Z,40.72
2023-05-10T09:11:59.842Z,40.18
2023-05-10T09:12:59.936Z,39.10
2023-05-10T09:14:00.068Z,37.91
2023-05-10T09:15:00.125Z,36.78
2023-05-10T09:16:04.453Z,35.16
2023-05-10T09:17:00.312Z,33.54
2023-05-10T09:18:00.529Z,32.79
2023-05-10T09:19:00.459Z,32.19
2023-05-10T09:20:00.520Z,32.26
2023-05-10T09:21:00.598Z,32.02
2023-05-10T09:22:00.668Z,31.47
2023-05-10T09:23:00.728Z,31.37
2023-05-10T09:24:00.785Z,31.33
2023-05-10T09:25:00.867Z,31.10
2023-05-10T09:26:00.920Z,29.95
2023-05-10T09:27:01.036Z,29.51
2023-05-10T09:28:01.111Z,29.89
2023-05-10T09:29:01.171Z,29.95
2023-05-10T09:30:01.296Z,29.22
2023-05-10T09:31:01.405Z,28.32
2023-05-10T09:32:01.391Z,27.19
2023-05-10T09:33:01.488Z,26.26
2023-05-10T09:34:01.529Z,24.54
2023-05-10T09:35:01.619Z,22.30
2023-05-10T09:36:01.690Z,21.37
2023-05-10T09:37:01.828Z,20.76
2023-05-10T09:38:01.878Z,19.28
2023-05-10T09:39:01.966Z,18.23
2023-05-10T09:40:02.035Z,17.01
2023-05-10T09:41:02.115Z,16.85
2023-05-10T09:42:02.167Z,16.42
2023-05-10T09:43:02.265Z,16.14
2023-05-10T09:44:02.377Z,15.09
2023-05-10T09:45:02.453Z,14.54
2023-05-10T09:46:02.557Z,14.88
2023-05-10T09:47:02.704Z,14.90
2023-05-10T09:48:02.764Z,14.52
2023-05-10T09:49:02.734Z,14.08
2023-05-10T09:50:02.796Z,13.65
2023-05-10T09:51:02.911Z,13.32
2023-05-10T09:52:02.991Z,13.26
2023-05-10T09:53:03.044Z,13.20
2023-05-10T09:54:03.106Z,13.03
2023-05-10T09:55:03.197Z,12.98
2023-05-10T09:56:03.313Z,12.97
2023-05-10T09:57:03.355Z,13.13
2023-05-10T09:58:03.451Z,13.38
2023-05-10T09:59:03.567Z,13.30
2023-05-10T10:00:03.601Z,13.33
2023-05-10T10:01:03.733Z,13.41
2023-05-10T10:02:03.935Z,13.44
2023-05-10T10:03:03.876Z,13.54
2023-05-10T10:04:03.925Z,13.54
2023-05-10T10:05:04.098Z,13.61
2023-05-10T10:06:04.086Z,13.65
2023-05-10T10:07:04.159Z,13.64
2023-05-10T10:08:04.210Z,13.73
2023-05-10T10:09:04.275Z,13.77
2023-05-10T10:10:04.364Z,13.72
2023-05-10T10:11:04.467Z,13.77
2023-05-10T10:12:04.549Z,13.90
2023-05-10T10:13:04.617Z,13.84
2023-05-10T10:14:04.718Z,13.87
2023-05-10T10:15:04.785Z,13.90
2023-05-10T10:16:04.865Z,13.90
2023-05-10T10:17:08.577Z,13.99
2023-05-10T10:18:05.196Z,13.99
2023-05-10T10:19:05.167Z,14.02
2023-05-10T10:20:05.142Z,14.04
2023-05-10T10:21:05.235Z,14.01
2023-05-10T10:22:05.391Z,14.02
2023-05-10T10:23:05.377Z,13.96
2023-05-10T10:24:05.441Z,14.00
2023-05-10T10:25:05.538Z,14.08
2023-05-10T10:26:05.644Z,14.03
2023-05-10T10:27:05.713Z,14.07
2023-05-10T10:28:05.794Z,14.11
2023-05-10T10:29:05.851Z,14.14
2023-05-10T10:30:05.949Z,14.07
2023-05-10T10:31:06.070Z,14.09
2023-05-10T10:32:06.146Z,14.05
2023-05-10T10:33:16.584Z,14.09
2023-05-10T10:34:06.298Z,14.19
2023-05-10T10:35:06.366Z,14.02
2023-05-10T10:36:06.451Z,13.98
2023-05-10T10:37:06.537Z,13.88
2023-05-10T10:38:06.657Z,13.99
2023-05-10T10:39:06.716Z,13.89
2023-05-10T10:40:06.776Z,13.81
2023-05-10T10:41:06.896Z,13.79
2023-05-10T10:42:06.952Z,13.90
2023-05-10T10:43:07.051Z,13.86
2023-05-10T10:44:07.110Z,13.80
2023-05-10T10:45:07.166Z,13.75
2023-05-10T10:46:07.260Z,13.82
2023-05-10T10:47:08.237Z,13.85
2023-05-10T10:48:07.444Z,13.83
2023-05-10T10:49:07.477Z,13.94
2023-05-10T10:50:07.579Z,14.20
2023-05-10T10:51:07.650Z,13.84
2023-05-10T10:52:07.726Z,13.80
2023-05-10T10:53:07.938Z,13.86
2023-05-10T10:54:07.918Z,13.86
2023-05-10T10:55:07.985Z,14.06
2023-05-10T10:56:08.049Z,14.08
2023-05-10T10:57:08.153Z,13.92
2023-05-10T10:58:08.207Z,13.72
2023-05-10T10:59:08.304Z,13.49
2023-05-10T11:00:08.380Z,13.50
2023-05-10T11:01:08.537Z,14.11
2023-05-10T11:02:08.544Z,14.05
2023-05-10T11:03:08.731Z,14.01
2023-05-10T11:04:08.802Z,13.85
2023-05-10T11:05:08.832Z,13.88
2023-05-10T11:06:08.899Z,13.80
2023-05-10T11:07:08.985Z,13.75
2023-05-10T11:08:09.110Z,13.74
2023-05-10T11:09:09.139Z,13.68
2023-05-10T11:10:09.205Z,13.64
2023-05-10T11:11:09.297Z,13.58
2023-05-10T11:12:09.353Z,13.54
2023-05-10T11:13:09.441Z,13.49
2023-05-10T11:14:09.610Z,13.56
2023-05-10T11:15:09.609Z,13.60
2023-05-10T11:16:09.710Z,13.50
2023-05-10T11:17:09.831Z,13.40
2023-05-10T11:18:09.882Z,13.33
2023-05-10T11:19:10.122Z,13.31
2023-05-10T11:20:10.032Z,13.28
2023-05-10T11:21:10.068Z,13.28
2023-05-10T11:22:10.189Z,13.30
2023-05-10T11:23:10.257Z,13.32
2023-05-10T11:24:10.334Z,13.32
2023-05-10T11:25:10.471Z,13.36
2023-05-10T11:26:10.550Z,13.41
2023-05-10T11:27:10.596Z,13.46
2023-05-10T11:28:10.637Z,13.47
2023-05-10T11:29:10.763Z,13.52
2023-05-10T11:30:10.802Z,13.54
2023-05-10T11:31:10.915Z,13.59
2023-05-10T11:32:10.996Z,13.57
2023-05-10T11:33:11.057Z,13.54
2023-05-10T11:34:11.157Z,13.56
2023-05-10T11:35:11.285Z,13.56
2023-05-10T11:36:11.317Z,13.55
2023-05-10T11:37:11.384Z,13.53
2023-05-10T11:38:11.488Z,13.56
2023-05-10T11:39:11.557Z,13.59
2023-05-10T11:40:11.614Z,13.65
2023-05-10T11:41:11.737Z,13.68
2023-05-10T11:42:11.797Z,13.71
2023-05-10T11:43:11.871Z,13.72
2023-05-10T11:44:11.999Z,13.78
2023-05-10T11:45:12.048Z,13.82
2023-05-10T11:46:12.200Z,13.85
2023-05-10T11:47:12.197Z,13.92
2023-05-10T11:48:12.305Z,13.88
2023-05-10T11:49:12.319Z,13.88
2023-05-10T11:50:12.419Z,13.90
2023-05-10T11:51:12.484Z,13.90
2023-05-10T11:52:12.544Z,13.89
2023-05-10T11:53:12.615Z,13.83
2023-05-10T11:54:12.709Z,13.80
2023-05-10T11:55:12.767Z,13.73
2023-05-10T11:56:12.900Z,13.72
2023-05-10T11:57:12.955Z,13.63
2023-05-10T11:58:13.046Z,13.60
2023-05-10T11:59:13.100Z,13.59
2023-05-10T12:00:13.197Z,13.58
2023-05-10T12:01:13.231Z,13.49
2023-05-10T12:02:13.365Z,13.55
2023-05-10T12:03:13.541Z,13.53
2023-05-10T12:04:13.680Z,13.51
2023-05-10T12:05:13.594Z,13.47
2023-05-10T12:06:13.698Z,13.50
2023-05-10T12:07:13.770Z,13.48
2023-05-10T12:08:13.824Z,13.46
2023-05-10T12:09:13.934Z,13.44
2023-05-10T12:10:14.082Z,13.40
2023-05-10T12:11:14.062Z,13.41
2023-05-10T12:12:14.146Z,13.34
2023-05-10T12:13:14.218Z,13.28
2023-05-10T12:14:14.289Z,13.30
2023-05-10T12:15:14.364Z,13.27
2023-05-10T12:16:15.030Z,13.32
2023-05-10T12:17:14.516Z,13.27
2023-05-10T12:18:14.590Z,13.38
2023-05-10T12:19:14.640Z,13.33
2023-05-10T12:20:15.027Z,13.30
2023-05-10T12:21:14.796Z,13.36
2023-05-10T12:22:14.904Z,13.39
2023-05-10T12:23:14.980Z,13.32
2023-05-10T12:24:15.035Z,13.38
2023-05-10T12:25:15.151Z,13.40
2023-05-10T12:26:15.256Z,13.45
2023-05-10T12:27:15.326Z,13.51
2023-05-10T12:28:15.402Z,13.44
2023-05-10T12:29:15.468Z,13.55
2023-05-10T12:30:15.797Z,13.56
2023-05-10T12:31:15.691Z,13.60
2023-05-10T12:32:15.833Z,13.57
2023-05-10T12:33:15.993Z,13.66
2023-05-10T12:34:15.828Z,13.71
2023-05-10T12:35:15.889Z,13.72
2023-05-10T12:36:15.983Z,13.64
2023-05-10T12:37:16.084Z,13.58
2023-05-10T12:38:16.235Z,13.59
2023-05-10T12:39:16.247Z,13.51
2023-05-10T12:40:16.486Z,13.41
2023-05-10T12:41:16.444Z,13.36
2023-05-10T12:42:16.483Z,13.38
2023-05-10T12:43:16.591Z,13.38
2023-05-10T12:44:16.637Z,13.39
2023-05-10T12:45:16.748Z,13.31
2023-05-10T12:46:17.019Z,13.32
2023-05-10T12:47:16.907Z,13.32
2023-05-10T12:48:17.041Z,13.34
2023-05-10T12:49:17.064Z,13.37
2023-05-10T12:50:17.443Z,13.32
2023-05-10T12:51:17.247Z,13.29
2023-05-10T12:52:17.327Z,13.33